sensor_id;sensor_type;location;lat;lon;timestamp;temperature;humidity
9389;DHT22;4734;52.778;6.798;2023-07-24T00:00:24;18.90;99.90
9389;DHT22;4734;52.778;6.798;2023-07-24T00:03:10;18.90;99.90
9389;DHT22;4734;52.778;6.798;2023-07-24T00:05:57;18.90;99.90
9389;DHT22;4734;52.778;6.798;2023-07-24T00:08:43;18.90;99.90
9389;DHT22;4734;52.778;6.798;2023-07-24T00:11:30;18.80;99.90
9389;DHT22;4734;52.778;6.798;2023-07-24T00:14:16;18.80;99.90
9389;DHT22;4734;52.778;6.798;2023-07-24T00:17:01;18.80;99.90
9389;DHT22;4734;52.778;6.798;2023-07-24T00:19:47;18.80;99.90
9389;DHT22;4734;52.778;6.798;2023-07-24T00:22:33;18.80;99.90
9389;DHT22;4734;52.778;6.798;2023-07-24T00:25:19;18.70;99.90
9389;DHT22;4734;52.778;6.798;2023-07-24T00:28:06;18.70;99.90
9389;DHT22;4734;52.778;6.798;2023-07-24T00:30:51;18.70;99.90
9389;DHT22;4734;52.778;6.798;2023-07-24T00:33:37;18.60;99.90
9389;DHT22;4734;52.778;6.798;2023-07-24T00:36:22;18.70;99.90
9389;DHT22;4734;52.778;6.798;2023-07-24T00:39:08;18.60;99.90
9389;DHT22;4734;52.778;6.798;2023-07-24T00:41:54;18.60;99.90
9389;DHT22;4734;52.778;6.798;2023-07-24T00:44:41;18.60;99.90
9389;DHT22;4734;52.778;6.798;2023-07-24T00:47:27;18.50;99.90
9389;DHT22;4734;52.778;6.798;2023-07-24T00:50:13;18.50;99.90
9389;DHT22;4734;52.778;6.798;2023-07-24T00:52:59;18.50;99.90
9389;DHT22;4734;52.778;6.798;2023-07-24T00:55:44;18.40;99.90
9389;DHT22;4734;52.778;6.798;2023-07-24T00:58:30;18.40;99.90
9389;DHT22;4734;52.778;6.798;2023-07-24T01:01:18;18.40;99.90
9389;DHT22;4734;52.778;6.798;2023-07-24T01:04:05;18.40;99.90
9389;DHT22;4734;52.778;6.798;2023-07-24T01:06:51;18.40;99.90
9389;DHT22;4734;52.778;6.798;2023-07-24T01:09:37;18.30;99.90
9389;DHT22;4734;52.778;6.798;2023-07-24T01:12:27;18.30;99.90
9389;DHT22;4734;52.778;6.798;2023-07-24T01:15:21;18.30;99.90
9389;DHT22;4734;52.778;6.798;2023-07-24T01:18:11;18.20;99.90
9389;DHT22;4734;52.778;6.798;2023-07-24T01:20:57;18.20;99.90
9389;DHT22;4734;52.778;6.798;2023-07-24T01:23:51;18.20;99.90
9389;DHT22;4734;52.778;6.798;2023-07-24T01:26:42;18.20;99.90
9389;DHT22;4734;52.778;6.798;2023-07-24T01:29:27;18.10;99.90
9389;DHT22;4734;52.778;6.798;2023-07-24T01:32:13;18.10;99.90
9389;DHT22;4734;52.778;6.798;2023-07-24T01:34:59;18.10;99.90
9389;DHT22;4734;52.778;6.798;2023-07-24T01:37:46;18.10;99.90
9389;DHT22;4734;52.778;6.798;2023-07-24T01:40:32;18.00;99.90
9389;DHT22;4734;52.778;6.798;2023-07-24T01:43:19;18.00;99.90
9389;DHT22;4734;52.778;6.798;2023-07-24T01:46:05;18.00;99.90
9389;DHT22;4734;52.778;6.798;2023-07-24T01:48:51;18.00;99.90
9389;DHT22;4734;52.778;6.798;2023-07-24T01:51:37;18.00;99.90
9389;DHT22;4734;52.778;6.798;2023-07-24T01:54:23;18.00;99.90
9389;DHT22;4734;52.778;6.798;2023-07-24T01:57:08;17.90;99.90
9389;DHT22;4734;52.778;6.798;2023-07-24T01:59:56;17.90;99.90
9389;DHT22;4734;52.778;6.798;2023-07-24T02:02:41;17.90;99.90
9389;DHT22;4734;52.778;6.798;2023-07-24T02:05:27;17.90;99.90
9389;DHT22;4734;52.778;6.798;2023-07-24T02:08:12;17.90;99.90
9389;DHT22;4734;52.778;6.798;2023-07-24T02:10:58;17.90;99.90
9389;DHT22;4734;52.778;6.798;2023-07-24T02:13:44;17.80;99.90
9389;DHT22;4734;52.778;6.798;2023-07-24T02:16:31;17.80;99.90
9389;DHT22;4734;52.778;6.798;2023-07-24T02:19:16;17.80;99.90
9389;DHT22;4734;52.778;6.798;2023-07-24T02:22:02;17.80;99.90
9389;DHT22;4734;52.778;6.798;2023-07-24T02:24:48;17.80;99.90
9389;DHT22;4734;52.778;6.798;2023-07-24T02:27:34;17.80;99.90
9389;DHT22;4734;52.778;6.798;2023-07-24T02:30:19;17.70;99.90
9389;DHT22;4734;52.778;6.798;2023-07-24T02:33:06;17.70;99.90
9389;DHT22;4734;52.778;6.798;2023-07-24T02:35:52;17.70;99.90
9389;DHT22;4734;52.778;6.798;2023-07-24T02:38:38;17.60;99.90
9389;DHT22;4734;52.778;6.798;2023-07-24T02:41:24;17.70;99.90
9389;DHT22;4734;52.778;6.798;2023-07-24T02:44:09;17.60;99.90
9389;DHT22;4734;52.778;6.798;2023-07-24T02:46:55;17.60;99.90
9389;DHT22;4734;52.778;6.798;2023-07-24T02:49:42;17.60;99.90
9389;DHT22;4734;52.778;6.798;2023-07-24T02:52:27;17.50;99.90
9389;DHT22;4734;52.778;6.798;2023-07-24T02:55:13;17.50;99.90
9389;DHT22;4734;52.778;6.798;2023-07-24T02:57:59;17.50;99.90
9389;DHT22;4734;52.778;6.798;2023-07-24T03:00:44;17.50;99.90
9389;DHT22;4734;52.778;6.798;2023-07-24T03:03:30;17.50;99.90
9389;DHT22;4734;52.778;6.798;2023-07-24T03:06:17;17.50;99.90
9389;DHT22;4734;52.778;6.798;2023-07-24T03:09:03;17.50;99.90
9389;DHT22;4734;52.778;6.798;2023-07-24T03:11:48;17.50;99.90
9389;DHT22;4734;52.778;6.798;2023-07-24T03:14:34;17.50;99.90
9389;DHT22;4734;52.778;6.798;2023-07-24T03:17:20;17.50;99.90
9389;DHT22;4734;52.778;6.798;2023-07-24T03:20:09;17.40;99.90
9389;DHT22;4734;52.778;6.798;2023-07-24T03:22:57;17.50;99.90
9389;DHT22;4734;52.778;6.798;2023-07-24T03:25:42;17.50;99.90
9389;DHT22;4734;52.778;6.798;2023-07-24T03:28:27;17.50;99.90
9389;DHT22;4734;52.778;6.798;2023-07-24T03:31:13;17.50;99.90
9389;DHT22;4734;52.778;6.798;2023-07-24T03:33:59;17.50;99.90
9389;DHT22;4734;52.778;6.798;2023-07-24T03:36:44;17.50;99.90
9389;DHT22;4734;52.778;6.798;2023-07-24T03:39:31;17.50;99.90
9389;DHT22;4734;52.778;6.798;2023-07-24T03:42:25;17.50;99.90
9389;DHT22;4734;52.778;6.798;2023-07-24T03:45:10;17.50;99.90
9389;DHT22;4734;52.778;6.798;2023-07-24T03:47:56;17.50;99.90
9389;DHT22;4734;52.778;6.798;2023-07-24T03:50:42;17.50;99.90
9389;DHT22;4734;52.778;6.798;2023-07-24T03:53:28;17.50;99.90
9389;DHT22;4734;52.778;6.798;2023-07-24T03:56:14;17.50;99.90
9389;DHT22;4734;52.778;6.798;2023-07-24T03:59:00;17.50;99.90
9389;DHT22;4734;52.778;6.798;2023-07-24T04:01:45;17.50;99.90
9389;DHT22;4734;52.778;6.798;2023-07-24T04:04:31;17.50;99.90
9389;DHT22;4734;52.778;6.798;2023-07-24T04:07:17;17.50;99.90
9389;DHT22;4734;52.778;6.798;2023-07-24T04:10:03;17.50;99.90
9389;DHT22;4734;52.778;6.798;2023-07-24T04:12:50;17.50;99.90
9389;DHT22;4734;52.778;6.798;2023-07-24T04:15:35;17.50;99.90
9389;DHT22;4734;52.778;6.798;2023-07-24T04:18:21;17.50;99.90
9389;DHT22;4734;52.778;6.798;2023-07-24T04:21:06;17.50;99.90
9389;DHT22;4734;52.778;6.798;2023-07-24T04:23:52;17.50;99.90
9389;DHT22;4734;52.778;6.798;2023-07-24T04:26:38;17.50;99.90
9389;DHT22;4734;52.778;6.798;2023-07-24T04:29:25;17.50;99.90
9389;DHT22;4734;52.778;6.798;2023-07-24T04:32:11;17.50;99.90
9389;DHT22;4734;52.778;6.798;2023-07-24T04:34:56;17.50;99.90
9389;DHT22;4734;52.778;6.798;2023-07-24T04:37:42;17.50;99.90
9389;DHT22;4734;52.778;6.798;2023-07-24T04:40:28;17.50;99.90
9389;DHT22;4734;52.778;6.798;2023-07-24T04:43:13;17.50;99.90
9389;DHT22;4734;52.778;6.798;2023-07-24T04:46:00;17.50;99.90
9389;DHT22;4734;52.778;6.798;2023-07-24T04:48:45;17.50;99.90
9389;DHT22;4734;52.778;6.798;2023-07-24T04:51:31;17.50;99.90
9389;DHT22;4734;52.778;6.798;2023-07-24T04:54:17;17.50;99.90
9389;DHT22;4734;52.778;6.798;2023-07-24T04:57:03;17.60;99.90
9389;DHT22;4734;52.778;6.798;2023-07-24T04:59:48;17.50;99.90
9389;DHT22;4734;52.778;6.798;2023-07-24T05:02:35;17.50;99.90
9389;DHT22;4734;52.778;6.798;2023-07-24T05:05:20;17.50;99.90
9389;DHT22;4734;52.778;6.798;2023-07-24T05:08:06;17.50;99.90
9389;DHT22;4734;52.778;6.798;2023-07-24T05:10:55;17.50;99.90
9389;DHT22;4734;52.778;6.798;2023-07-24T05:13:41;17.50;99.90
9389;DHT22;4734;52.778;6.798;2023-07-24T05:16:26;17.60;99.90
9389;DHT22;4734;52.778;6.798;2023-07-24T05:19:13;17.50;99.90
9389;DHT22;4734;52.778;6.798;2023-07-24T05:21:59;17.50;99.90
9389;DHT22;4734;52.778;6.798;2023-07-24T05:24:45;17.60;99.90
9389;DHT22;4734;52.778;6.798;2023-07-24T05:27:30;17.50;99.90
9389;DHT22;4734;52.778;6.798;2023-07-24T05:30:16;17.50;99.90
9389;DHT22;4734;52.778;6.798;2023-07-24T05:33:01;17.50;99.90
9389;DHT22;4734;52.778;6.798;2023-07-24T05:35:49;17.50;99.90
9389;DHT22;4734;52.778;6.798;2023-07-24T05:38:35;17.50;99.90
9389;DHT22;4734;52.778;6.798;2023-07-24T05:41:20;17.50;99.90
9389;DHT22;4734;52.778;6.798;2023-07-24T05:44:06;17.50;99.90
9389;DHT22;4734;52.778;6.798;2023-07-24T05:46:51;17.50;99.90
9389;DHT22;4734;52.778;6.798;2023-07-24T05:49:37;17.50;99.90
9389;DHT22;4734;52.778;6.798;2023-07-24T05:52:24;17.50;99.90
9389;DHT22;4734;52.778;6.798;2023-07-24T05:55:09;17.60;99.90
9389;DHT22;4734;52.778;6.798;2023-07-24T05:57:55;17.60;99.90
9389;DHT22;4734;52.778;6.798;2023-07-24T06:00:41;17.60;99.90
9389;DHT22;4734;52.778;6.798;2023-07-24T06:03:26;17.60;99.90
9389;DHT22;4734;52.778;6.798;2023-07-24T06:06:12;17.60;99.90
9389;DHT22;4734;52.778;6.798;2023-07-24T06:08:59;17.60;99.90
9389;DHT22;4734;52.778;6.798;2023-07-24T06:11:44;17.60;99.90
9389;DHT22;4734;52.778;6.798;2023-07-24T06:14:30;17.60;99.90
9389;DHT22;4734;52.778;6.798;2023-07-24T06:17:16;17.70;99.90
9389;DHT22;4734;52.778;6.798;2023-07-24T06:20:01;17.70;99.90
9389;DHT22;4734;52.778;6.798;2023-07-24T06:22:47;17.70;99.90
9389;DHT22;4734;52.778;6.798;2023-07-24T06:25:34;17.70;99.90
9389;DHT22;4734;52.778;6.798;2023-07-24T06:28:19;17.70;99.90
9389;DHT22;4734;52.778;6.798;2023-07-24T06:31:05;17.80;99.90
9389;DHT22;4734;52.778;6.798;2023-07-24T06:33:51;17.80;99.90
9389;DHT22;4734;52.778;6.798;2023-07-24T06:36:36;17.80;99.90
9389;DHT22;4734;52.778;6.798;2023-07-24T06:39:22;17.80;99.90
9389;DHT22;4734;52.778;6.798;2023-07-24T06:42:09;17.80;99.90
9389;DHT22;4734;52.778;6.798;2023-07-24T06:44:54;17.90;99.90
9389;DHT22;4734;52.778;6.798;2023-07-24T06:47:40;17.90;99.90
9389;DHT22;4734;52.778;6.798;2023-07-24T06:50:25;17.90;99.90
9389;DHT22;4734;52.778;6.798;2023-07-24T06:53:11;18.00;99.90
9389;DHT22;4734;52.778;6.798;2023-07-24T06:55:57;18.00;99.90
9389;DHT22;4734;52.778;6.798;2023-07-24T06:58:43;18.10;99.90
9389;DHT22;4734;52.778;6.798;2023-07-24T07:01:29;18.10;99.90
9389;DHT22;4734;52.778;6.798;2023-07-24T07:04:16;18.20;99.90
9389;DHT22;4734;52.778;6.798;2023-07-24T07:07:01;18.20;99.90
9389;DHT22;4734;52.778;6.798;2023-07-24T07:09:48;18.20;99.90
9389;DHT22;4734;52.778;6.798;2023-07-24T07:12:33;18.30;99.90
9389;DHT22;4734;52.778;6.798;2023-07-24T07:15:20;18.40;99.90
9389;DHT22;4734;52.778;6.798;2023-07-24T07:18:06;18.40;99.90
9389;DHT22;4734;52.778;6.798;2023-07-24T07:20:52;18.50;99.90
9389;DHT22;4734;52.778;6.798;2023-07-24T07:23:38;18.50;99.90
9389;DHT22;4734;52.778;6.798;2023-07-24T07:26:24;18.60;99.90
9389;DHT22;4734;52.778;6.798;2023-07-24T07:29:09;18.60;99.90
9389;DHT22;4734;52.778;6.798;2023-07-24T07:31:56;18.70;99.90
9389;DHT22;4734;52.778;6.798;2023-07-24T07:34:41;18.70;99.90
9389;DHT22;4734;52.778;6.798;2023-07-24T07:37:27;18.80;99.90
9389;DHT22;4734;52.778;6.798;2023-07-24T07:40:13;18.80;99.90
9389;DHT22;4734;52.778;6.798;2023-07-24T07:42:58;18.90;99.90
9389;DHT22;4734;52.778;6.798;2023-07-24T07:45:44;19.00;99.90
9389;DHT22;4734;52.778;6.798;2023-07-24T07:48:31;19.10;99.90
9389;DHT22;4734;52.778;6.798;2023-07-24T07:51:17;19.20;99.90
9389;DHT22;4734;52.778;6.798;2023-07-24T07:54:03;19.30;99.90
9389;DHT22;4734;52.778;6.798;2023-07-24T07:56:48;19.30;99.90
9389;DHT22;4734;52.778;6.798;2023-07-24T07:59:34;19.40;99.90
9389;DHT22;4734;52.778;6.798;2023-07-24T08:02:20;19.50;99.90
9389;DHT22;4734;52.778;6.798;2023-07-24T08:05:08;19.60;99.90
9389;DHT22;4734;52.778;6.798;2023-07-24T08:07:54;19.70;99.90
9389;DHT22;4734;52.778;6.798;2023-07-24T08:10:40;19.80;99.90
9389;DHT22;4734;52.778;6.798;2023-07-24T08:13:25;19.80;99.90
9389;DHT22;4734;52.778;6.798;2023-07-24T08:16:15;19.90;99.90
9389;DHT22;4734;52.778;6.798;2023-07-24T08:19:02;20.00;99.90
9389;DHT22;4734;52.778;6.798;2023-07-24T08:21:49;20.10;99.90
9389;DHT22;4734;52.778;6.798;2023-07-24T08:24:35;20.10;99.90
9389;DHT22;4734;52.778;6.798;2023-07-24T08:27:21;20.20;99.90
9389;DHT22;4734;52.778;6.798;2023-07-24T08:30:07;20.30;99.90
9389;DHT22;4734;52.778;6.798;2023-07-24T08:32:52;20.40;99.90
9389;DHT22;4734;52.778;6.798;2023-07-24T08:35:38;20.50;99.90
9389;DHT22;4734;52.778;6.798;2023-07-24T08:38:25;20.60;99.90
9389;DHT22;4734;52.778;6.798;2023-07-24T08:41:12;20.70;99.90
9389;DHT22;4734;52.778;6.798;2023-07-24T08:43:58;20.80;99.90
9389;DHT22;4734;52.778;6.798;2023-07-24T08:46:44;20.90;99.90
9389;DHT22;4734;52.778;6.798;2023-07-24T08:49:32;21.00;99.90
9389;DHT22;4734;52.778;6.798;2023-07-24T08:52:18;21.10;99.90
9389;DHT22;4734;52.778;6.798;2023-07-24T08:55:07;21.20;99.90
9389;DHT22;4734;52.778;6.798;2023-07-24T08:57:52;21.30;99.90
9389;DHT22;4734;52.778;6.798;2023-07-24T09:00:38;21.40;99.90
9389;DHT22;4734;52.778;6.798;2023-07-24T09:03:24;21.40;99.90
9389;DHT22;4734;52.778;6.798;2023-07-24T09:06:10;21.50;99.90
9389;DHT22;4734;52.778;6.798;2023-07-24T09:08:55;21.60;99.90
9389;DHT22;4734;52.778;6.798;2023-07-24T09:11:51;21.60;99.90
9389;DHT22;4734;52.778;6.798;2023-07-24T09:14:37;21.70;99.90
9389;DHT22;4734;52.778;6.798;2023-07-24T09:17:22;21.70;99.90
9389;DHT22;4734;52.778;6.798;2023-07-24T09:20:09;21.70;99.90
9389;DHT22;4734;52.778;6.798;2023-07-24T09:22:56;21.80;99.90
9389;DHT22;4734;52.778;6.798;2023-07-24T09:25:43;21.90;99.90
9389;DHT22;4734;52.778;6.798;2023-07-24T09:28:30;21.90;99.90
9389;DHT22;4734;52.778;6.798;2023-07-24T09:31:16;21.90;99.90
9389;DHT22;4734;52.778;6.798;2023-07-24T09:34:02;22.00;99.90
9389;DHT22;4734;52.778;6.798;2023-07-24T09:36:50;22.10;99.90
9389;DHT22;4734;52.778;6.798;2023-07-24T09:39:35;22.20;99.90
9389;DHT22;4734;52.778;6.798;2023-07-24T09:42:29;22.30;99.90
9389;DHT22;4734;52.778;6.798;2023-07-24T09:45:16;22.40;99.90
9389;DHT22;4734;52.778;6.798;2023-07-24T09:48:01;22.50;99.90
9389;DHT22;4734;52.778;6.798;2023-07-24T09:50:48;22.60;99.90
9389;DHT22;4734;52.778;6.798;2023-07-24T09:53:39;22.60;99.90
9389;DHT22;4734;52.778;6.798;2023-07-24T09:56:27;22.80;99.90
9389;DHT22;4734;52.778;6.798;2023-07-24T09:59:14;22.90;99.90
9389;DHT22;4734;52.778;6.798;2023-07-24T10:02:01;23.00;99.90
9389;DHT22;4734;52.778;6.798;2023-07-24T10:04:49;23.10;99.90
9389;DHT22;4734;52.778;6.798;2023-07-24T10:07:35;23.30;99.90
9389;DHT22;4734;52.778;6.798;2023-07-24T10:10:21;23.40;99.90
9389;DHT22;4734;52.778;6.798;2023-07-24T10:13:08;23.40;99.90
9389;DHT22;4734;52.778;6.798;2023-07-24T10:15:56;23.50;99.90
9389;DHT22;4734;52.778;6.798;2023-07-24T10:18:46;23.60;99.90
9389;DHT22;4734;52.778;6.798;2023-07-24T10:21:32;23.70;99.90
9389;DHT22;4734;52.778;6.798;2023-07-24T10:24:17;23.80;99.90
9389;DHT22;4734;52.778;6.798;2023-07-24T10:27:09;23.90;99.90
9389;DHT22;4734;52.778;6.798;2023-07-24T10:29:59;24.00;99.90
9389;DHT22;4734;52.778;6.798;2023-07-24T10:32:48;24.10;99.90
9389;DHT22;4734;52.778;6.798;2023-07-24T10:35:43;24.20;99.90
9389;DHT22;4734;52.778;6.798;2023-07-24T10:38:35;24.20;99.90
9389;DHT22;4734;52.778;6.798;2023-07-24T10:41:22;24.20;99.90
9389;DHT22;4734;52.778;6.798;2023-07-24T10:44:11;24.30;99.90
9389;DHT22;4734;52.778;6.798;2023-07-24T10:46:57;24.30;99.90
9389;DHT22;4734;52.778;6.798;2023-07-24T10:49:47;24.30;99.90
9389;DHT22;4734;52.778;6.798;2023-07-24T10:52:37;24.30;99.90
9389;DHT22;4734;52.778;6.798;2023-07-24T10:55:22;24.30;99.90
9389;DHT22;4734;52.778;6.798;2023-07-24T10:58:09;24.30;99.90
9389;DHT22;4734;52.778;6.798;2023-07-24T11:00:58;24.30;99.90
9389;DHT22;4734;52.778;6.798;2023-07-24T11:03:44;24.30;99.90
9389;DHT22;4734;52.778;6.798;2023-07-24T11:06:29;24.40;99.90
9389;DHT22;4734;52.778;6.798;2023-07-24T11:09:17;24.40;99.90
9389;DHT22;4734;52.778;6.798;2023-07-24T11:12:10;24.50;99.90
9389;DHT22;4734;52.778;6.798;2023-07-24T11:17:51;24.70;99.90
9389;DHT22;4734;52.778;6.798;2023-07-24T11:20:47;24.80;99.90
9389;DHT22;4734;52.778;6.798;2023-07-24T11:23:32;25.00;99.90
9389;DHT22;4734;52.778;6.798;2023-07-24T11:26:21;25.10;99.90
9389;DHT22;4734;52.778;6.798;2023-07-24T11:29:13;25.10;99.90
9389;DHT22;4734;52.778;6.798;2023-07-24T11:31:58;25.20;99.90
9389;DHT22;4734;52.778;6.798;2023-07-24T11:34:44;25.20;99.90
9389;DHT22;4734;52.778;6.798;2023-07-24T11:37:30;25.30;99.90
9389;DHT22;4734;52.778;6.798;2023-07-24T11:40:16;25.30;99.90
9389;DHT22;4734;52.778;6.798;2023-07-24T11:43:05;25.40;99.90
9389;DHT22;4734;52.778;6.798;2023-07-24T11:45:59;25.40;99.90
9389;DHT22;4734;52.778;6.798;2023-07-24T11:48:45;25.40;99.90
9389;DHT22;4734;52.778;6.798;2023-07-24T11:51:31;25.40;99.90
9389;DHT22;4734;52.778;6.798;2023-07-24T11:54:17;25.40;99.90
9389;DHT22;4734;52.778;6.798;2023-07-24T11:57:03;25.40;99.90
9389;DHT22;4734;52.778;6.798;2023-07-24T12:00:01;25.40;99.90
9389;DHT22;4734;52.778;6.798;2023-07-24T12:02:46;25.40;99.90
9389;DHT22;4734;52.778;6.798;2023-07-24T12:05:37;25.40;99.90
9389;DHT22;4734;52.778;6.798;2023-07-24T12:08:30;25.40;99.90
9389;DHT22;4734;52.778;6.798;2023-07-24T12:11:17;25.40;99.90
9389;DHT22;4734;52.778;6.798;2023-07-24T12:14:02;25.40;99.90
9389;DHT22;4734;52.778;6.798;2023-07-24T12:16:49;25.30;99.90
9389;DHT22;4734;52.778;6.798;2023-07-24T12:19:35;25.30;99.90
9389;DHT22;4734;52.778;6.798;2023-07-24T12:22:21;25.30;99.90
9389;DHT22;4734;52.778;6.798;2023-07-24T12:25:07;25.30;99.90
9389;DHT22;4734;52.778;6.798;2023-07-24T12:27:53;25.30;99.90
9389;DHT22;4734;52.778;6.798;2023-07-24T12:30:39;25.30;99.90
9389;DHT22;4734;52.778;6.798;2023-07-24T12:33:25;25.20;99.90
9389;DHT22;4734;52.778;6.798;2023-07-24T12:36:11;25.20;99.90
9389;DHT22;4734;52.778;6.798;2023-07-24T12:38:56;25.10;99.90
9389;DHT22;4734;52.778;6.798;2023-07-24T12:41:42;25.10;99.90
9389;DHT22;4734;52.778;6.798;2023-07-24T12:44:27;25.10;99.90
9389;DHT22;4734;52.778;6.798;2023-07-24T12:47:13;25.10;99.90
9389;DHT22;4734;52.778;6.798;2023-07-24T12:50:00;25.10;99.90
9389;DHT22;4734;52.778;6.798;2023-07-24T12:52:47;25.10;99.90
9389;DHT22;4734;52.778;6.798;2023-07-24T12:55:32;25.10;99.90
9389;DHT22;4734;52.778;6.798;2023-07-24T12:58:18;25.10;99.90
9389;DHT22;4734;52.778;6.798;2023-07-24T13:01:04;25.10;99.90
9389;DHT22;4734;52.778;6.798;2023-07-24T13:03:50;25.10;99.90
9389;DHT22;4734;52.778;6.798;2023-07-24T13:06:37;25.10;99.90
9389;DHT22;4734;52.778;6.798;2023-07-24T13:09:23;25.10;99.90
9389;DHT22;4734;52.778;6.798;2023-07-24T13:12:09;25.20;99.90
9389;DHT22;4734;52.778;6.798;2023-07-24T13:14:54;25.20;99.90
9389;DHT22;4734;52.778;6.798;2023-07-24T13:17:40;25.20;99.90
9389;DHT22;4734;52.778;6.798;2023-07-24T13:20:25;25.30;99.90
9389;DHT22;4734;52.778;6.798;2023-07-24T13:23:12;25.30;99.90
9389;DHT22;4734;52.778;6.798;2023-07-24T13:25:58;25.40;99.90
9389;DHT22;4734;52.778;6.798;2023-07-24T13:28:43;25.50;99.90
9389;DHT22;4734;52.778;6.798;2023-07-24T13:31:31;25.50;99.90
9389;DHT22;4734;52.778;6.798;2023-07-24T13:34:16;25.60;99.90
9389;DHT22;4734;52.778;6.798;2023-07-24T13:37:03;25.60;99.90
9389;DHT22;4734;52.778;6.798;2023-07-24T13:39:50;25.70;99.90
9389;DHT22;4734;52.778;6.798;2023-07-24T13:42:36;25.70;99.90
9389;DHT22;4734;52.778;6.798;2023-07-24T13:48:07;25.70;99.90
9389;DHT22;4734;52.778;6.798;2023-07-24T13:50:53;25.70;99.90
9389;DHT22;4734;52.778;6.798;2023-07-24T13:53:38;25.80;99.90
9389;DHT22;4734;52.778;6.798;2023-07-24T13:56:25;25.70;99.90
9389;DHT22;4734;52.778;6.798;2023-07-24T13:59:13;25.70;99.90
9389;DHT22;4734;52.778;6.798;2023-07-24T14:01:59;25.60;99.90
9389;DHT22;4734;52.778;6.798;2023-07-24T14:04:44;25.60;99.90
9389;DHT22;4734;52.778;6.798;2023-07-24T14:07:30;25.40;99.90
9389;DHT22;4734;52.778;6.798;2023-07-24T14:10:16;25.30;99.90
9389;DHT22;4734;52.778;6.798;2023-07-24T14:13:03;25.20;99.90
9389;DHT22;4734;52.778;6.798;2023-07-24T14:15:48;25.00;99.90
9389;DHT22;4734;52.778;6.798;2023-07-24T14:18:34;24.90;99.90
9389;DHT22;4734;52.778;6.798;2023-07-24T14:21:19;24.70;99.90
9389;DHT22;4734;52.778;6.798;2023-07-24T14:24:05;24.60;99.90
9389;DHT22;4734;52.778;6.798;2023-07-24T14:26:50;24.50;99.90
9389;DHT22;4734;52.778;6.798;2023-07-24T14:29:37;24.30;99.90
9389;DHT22;4734;52.778;6.798;2023-07-24T14:32:23;24.20;99.90
9389;DHT22;4734;52.778;6.798;2023-07-24T14:35:08;24.00;99.90
9389;DHT22;4734;52.778;6.798;2023-07-24T14:37:54;23.90;99.90
9389;DHT22;4734;52.778;6.798;2023-07-24T14:40:40;23.80;99.90
9389;DHT22;4734;52.778;6.798;2023-07-24T14:43:25;23.70;99.90
9389;DHT22;4734;52.778;6.798;2023-07-24T14:46:12;23.60;99.90
9389;DHT22;4734;52.778;6.798;2023-07-24T14:48:58;23.50;99.90
9389;DHT22;4734;52.778;6.798;2023-07-24T14:51:44;23.40;99.90
9389;DHT22;4734;52.778;6.798;2023-07-24T14:54:29;23.20;99.90
9389;DHT22;4734;52.778;6.798;2023-07-24T14:57:15;23.10;99.90
9389;DHT22;4734;52.778;6.798;2023-07-24T15:00:01;23.00;99.90
9389;DHT22;4734;52.778;6.798;2023-07-24T15:02:48;22.90;99.90
9389;DHT22;4734;52.778;6.798;2023-07-24T15:05:33;22.90;99.90
9389;DHT22;4734;52.778;6.798;2023-07-24T15:08:19;22.90;99.90
9389;DHT22;4734;52.778;6.798;2023-07-24T15:11:04;22.80;99.90
9389;DHT22;4734;52.778;6.798;2023-07-24T15:13:51;22.80;99.90
9389;DHT22;4734;52.778;6.798;2023-07-24T15:16:36;22.80;99.90
9389;DHT22;4734;52.778;6.798;2023-07-24T15:19:23;22.70;99.90
9389;DHT22;4734;52.778;6.798;2023-07-24T15:22:09;22.70;99.90
9389;DHT22;4734;52.778;6.798;2023-07-24T15:24:54;22.70;99.90
9389;DHT22;4734;52.778;6.798;2023-07-24T15:27:40;22.70;99.90
9389;DHT22;4734;52.778;6.798;2023-07-24T15:30:25;22.70;99.90
9389;DHT22;4734;52.778;6.798;2023-07-24T15:33:11;22.70;99.90
9389;DHT22;4734;52.778;6.798;2023-07-24T15:35:58;22.70;99.90
9389;DHT22;4734;52.778;6.798;2023-07-24T15:38:43;22.70;99.90
9389;DHT22;4734;52.778;6.798;2023-07-24T15:41:29;22.70;99.90
9389;DHT22;4734;52.778;6.798;2023-07-24T15:44:15;22.80;99.90
9389;DHT22;4734;52.778;6.798;2023-07-24T15:47:01;22.80;99.90
9389;DHT22;4734;52.778;6.798;2023-07-24T15:49:46;22.80;99.90
9389;DHT22;4734;52.778;6.798;2023-07-24T15:52:33;22.80;99.90
9389;DHT22;4734;52.778;6.798;2023-07-24T15:55:18;22.80;99.90
9389;DHT22;4734;52.778;6.798;2023-07-24T15:58:04;22.80;99.90
9389;DHT22;4734;52.778;6.798;2023-07-24T16:00:49;22.80;99.90
9389;DHT22;4734;52.778;6.798;2023-07-24T16:03:35;22.80;99.90
9389;DHT22;4734;52.778;6.798;2023-07-24T16:06:21;22.80;99.90
9389;DHT22;4734;52.778;6.798;2023-07-24T16:09:07;22.80;99.90
9389;DHT22;4734;52.778;6.798;2023-07-24T16:11:53;22.80;99.90
9389;DHT22;4734;52.778;6.798;2023-07-24T16:14:39;22.80;99.90
9389;DHT22;4734;52.778;6.798;2023-07-24T16:17:24;22.80;99.90
9389;DHT22;4734;52.778;6.798;2023-07-24T16:20:10;22.80;99.90
9389;DHT22;4734;52.778;6.798;2023-07-24T16:22:56;22.90;99.90
9389;DHT22;4734;52.778;6.798;2023-07-24T16:25:43;22.90;99.90
9389;DHT22;4734;52.778;6.798;2023-07-24T16:28:28;23.00;99.90
9389;DHT22;4734;52.778;6.798;2023-07-24T16:31:14;23.00;99.90
9389;DHT22;4734;52.778;6.798;2023-07-24T16:34:00;23.00;99.90
9389;DHT22;4734;52.778;6.798;2023-07-24T16:36:46;23.10;99.90
9389;DHT22;4734;52.778;6.798;2023-07-24T16:39:31;23.10;99.90
9389;DHT22;4734;52.778;6.798;2023-07-24T16:42:18;23.20;99.90
9389;DHT22;4734;52.778;6.798;2023-07-24T16:45:04;23.20;99.90
9389;DHT22;4734;52.778;6.798;2023-07-24T16:47:50;23.20;99.90
9389;DHT22;4734;52.778;6.798;2023-07-24T16:50:35;23.30;99.90
9389;DHT22;4734;52.778;6.798;2023-07-24T16:53:21;23.20;99.90
9389;DHT22;4734;52.778;6.798;2023-07-24T16:56:06;23.20;99.90
9389;DHT22;4734;52.778;6.798;2023-07-24T16:58:53;23.20;99.90
9389;DHT22;4734;52.778;6.798;2023-07-24T17:01:39;23.20;99.90
9389;DHT22;4734;52.778;6.798;2023-07-24T17:04:25;23.10;99.90
9389;DHT22;4734;52.778;6.798;2023-07-24T17:07:10;23.10;99.90
9389;DHT22;4734;52.778;6.798;2023-07-24T17:09:56;23.10;99.90
9389;DHT22;4734;52.778;6.798;2023-07-24T17:12:42;23.00;99.90
9389;DHT22;4734;52.778;6.798;2023-07-24T17:15:29;23.00;99.90
9389;DHT22;4734;52.778;6.798;2023-07-24T17:18:14;22.90;99.90
9389;DHT22;4734;52.778;6.798;2023-07-24T17:21:00;22.80;99.90
9389;DHT22;4734;52.778;6.798;2023-07-24T17:23:45;22.80;99.90
9389;DHT22;4734;52.778;6.798;2023-07-24T17:26:31;22.70;99.90
9389;DHT22;4734;52.778;6.798;2023-07-24T17:29:18;22.60;99.90
9389;DHT22;4734;52.778;6.798;2023-07-24T17:32:06;22.60;99.90
9389;DHT22;4734;52.778;6.798;2023-07-24T17:34:52;22.50;99.90
9389;DHT22;4734;52.778;6.798;2023-07-24T17:37:38;22.40;99.90
9389;DHT22;4734;52.778;6.798;2023-07-24T17:40:25;22.40;99.90
9389;DHT22;4734;52.778;6.798;2023-07-24T17:43:10;22.40;99.90
9389;DHT22;4734;52.778;6.798;2023-07-24T17:45:59;22.20;99.90
9389;DHT22;4734;52.778;6.798;2023-07-24T17:48:46;22.20;99.90
9389;DHT22;4734;52.778;6.798;2023-07-24T17:51:32;22.10;99.90
9389;DHT22;4734;52.778;6.798;2023-07-24T17:54:17;22.10;99.90
9389;DHT22;4734;52.778;6.798;2023-07-24T17:57:03;22.00;99.90
9389;DHT22;4734;52.778;6.798;2023-07-24T17:59:49;22.00;99.90
9389;DHT22;4734;52.778;6.798;2023-07-24T18:02:34;21.90;99.90
9389;DHT22;4734;52.778;6.798;2023-07-24T18:05:21;21.90;99.90
9389;DHT22;4734;52.778;6.798;2023-07-24T18:08:07;21.80;99.90
9389;DHT22;4734;52.778;6.798;2023-07-24T18:10:53;21.80;99.90